sensor_id;sensor_type;location;lat;lon;timestamp;temperature;humidity
17421;DHT22;8828;48.800;9.540;2022-10-26T00:01:20;13.90;99.90
17421;DHT22;8828;48.800;9.540;2022-10-26T00:03:49;13.90;99.90
17421;DHT22;8828;48.800;9.540;2022-10-26T00:06:19;13.80;99.90
17421;DHT22;8828;48.800;9.540;2022-10-26T00:08:48;13.80;99.90
17421;DHT22;8828;48.800;9.540;2022-10-26T00:11:16;13.80;99.90
17421;DHT22;8828;48.800;9.540;2022-10-26T00:13:45;13.80;99.90
17421;DHT22;8828;48.800;9.540;2022-10-26T00:16:15;13.80;99.90
17421;DHT22;8828;48.800;9.540;2022-10-26T00:18:43;13.80;99.90
17421;DHT22;8828;48.800;9.540;2022-10-26T00:21:12;13.80;99.90
17421;DHT22;8828;48.800;9.540;2022-10-26T00:23:41;13.80;99.90
17421;DHT22;8828;48.800;9.540;2022-10-26T00:26:09;13.90;99.90
17421;DHT22;8828;48.800;9.540;2022-10-26T00:28:37;13.90;99.90
17421;DHT22;8828;48.800;9.540;2022-10-26T00:31:07;13.90;99.90
17421;DHT22;8828;48.800;9.540;2022-10-26T00:33:35;13.90;99.90
17421;DHT22;8828;48.800;9.540;2022-10-26T00:36:03;13.90;99.90
17421;DHT22;8828;48.800;9.540;2022-10-26T00:38:31;13.90;99.90
17421;DHT22;8828;48.800;9.540;2022-10-26T00:41:00;13.90;99.90
17421;DHT22;8828;48.800;9.540;2022-10-26T00:43:36;13.90;99.90
17421;DHT22;8828;48.800;9.540;2022-10-26T00:46:10;13.90;99.90
17421;DHT22;8828;48.800;9.540;2022-10-26T00:48:42;13.80;99.90
17421;DHT22;8828;48.800;9.540;2022-10-26T00:51:16;13.90;99.90
17421;DHT22;8828;48.800;9.540;2022-10-26T00:53:46;13.80;99.90
17421;DHT22;8828;48.800;9.540;2022-10-26T00:56:16;13.90;99.90
17421;DHT22;8828;48.800;9.540;2022-10-26T00:58:45;13.90;99.90
17421;DHT22;8828;48.800;9.540;2022-10-26T01:01:13;13.90;99.90
17421;DHT22;8828;48.800;9.540;2022-10-26T01:03:42;13.90;99.90
17421;DHT22;8828;48.800;9.540;2022-10-26T01:06:11;13.90;99.90
17421;DHT22;8828;48.800;9.540;2022-10-26T01:08:42;13.90;99.90
17421;DHT22;8828;48.800;9.540;2022-10-26T01:11:11;13.90;99.90
17421;DHT22;8828;48.800;9.540;2022-10-26T01:13:41;13.90;99.90
17421;DHT22;8828;48.800;9.540;2022-10-26T01:16:29;13.90;99.90
17421;DHT22;8828;48.800;9.540;2022-10-26T01:19:14;13.90;99.90
17421;DHT22;8828;48.800;9.540;2022-10-26T01:21:51;13.90;99.90
17421;DHT22;8828;48.800;9.540;2022-10-26T01:27:26;13.80;99.90
17421;DHT22;8828;48.800;9.540;2022-10-26T01:30:19;13.90;99.90
17421;DHT22;8828;48.800;9.540;2022-10-26T01:33:06;13.90;99.90
17421;DHT22;8828;48.800;9.540;2022-10-26T01:35:40;13.80;99.90
17421;DHT22;8828;48.800;9.540;2022-10-26T01:38:16;13.80;99.90
17421;DHT22;8828;48.800;9.540;2022-10-26T01:40:49;13.90;99.90
17421;DHT22;8828;48.800;9.540;2022-10-26T01:43:20;13.90;99.90
17421;DHT22;8828;48.800;9.540;2022-10-26T01:45:51;13.90;99.90
17421;DHT22;8828;48.800;9.540;2022-10-26T01:48:22;13.90;99.90
17421;DHT22;8828;48.800;9.540;2022-10-26T01:50:52;13.90;99.90
17421;DHT22;8828;48.800;9.540;2022-10-26T01:53:21;13.90;99.90
17421;DHT22;8828;48.800;9.540;2022-10-26T01:55:50;13.90;99.90
17421;DHT22;8828;48.800;9.540;2022-10-26T01:58:52;13.90;99.90
17421;DHT22;8828;48.800;9.540;2022-10-26T02:01:44;13.90;99.90
17421;DHT22;8828;48.800;9.540;2022-10-26T02:04:26;13.90;99.90
17421;DHT22;8828;48.800;9.540;2022-10-26T02:07:02;13.90;99.90
17421;DHT22;8828;48.800;9.540;2022-10-26T02:09:37;13.80;99.90
17421;DHT22;8828;48.800;9.540;2022-10-26T02:12:13;13.80;99.90
17421;DHT22;8828;48.800;9.540;2022-10-26T02:14:48;13.70;99.90
17421;DHT22;8828;48.800;9.540;2022-10-26T02:17:25;13.70;99.90
17421;DHT22;8828;48.800;9.540;2022-10-26T02:19:57;13.80;99.90
17421;DHT22;8828;48.800;9.540;2022-10-26T02:22:28;13.80;99.90
17421;DHT22;8828;48.800;9.540;2022-10-26T02:24:59;13.80;99.90
17421;DHT22;8828;48.800;9.540;2022-10-26T02:27:31;13.80;99.90
17421;DHT22;8828;48.800;9.540;2022-10-26T02:30:01;13.80;99.90
17421;DHT22;8828;48.800;9.540;2022-10-26T02:32:34;13.80;99.90
17421;DHT22;8828;48.800;9.540;2022-10-26T02:35:03;13.80;99.90
17421;DHT22;8828;48.800;9.540;2022-10-26T02:37:33;13.80;99.90
17421;DHT22;8828;48.800;9.540;2022-10-26T02:40:05;13.80;99.90
17421;DHT22;8828;48.800;9.540;2022-10-26T02:42:34;13.80;99.90
17421;DHT22;8828;48.800;9.540;2022-10-26T02:45:07;13.80;99.90
17421;DHT22;8828;48.800;9.540;2022-10-26T02:47:38;13.80;99.90
17421;DHT22;8828;48.800;9.540;2022-10-26T02:50:06;13.80;99.90
17421;DHT22;8828;48.800;9.540;2022-10-26T02:52:41;13.70;99.90
17421;DHT22;8828;48.800;9.540;2022-10-26T02:55:14;13.70;99.90
17421;DHT22;8828;48.800;9.540;2022-10-26T02:57:47;13.80;99.90
17421;DHT22;8828;48.800;9.540;2022-10-26T03:00:18;13.70;99.90
17421;DHT22;8828;48.800;9.540;2022-10-26T03:02:51;13.70;99.90
17421;DHT22;8828;48.800;9.540;2022-10-26T03:05:22;13.70;99.90
17421;DHT22;8828;48.800;9.540;2022-10-26T03:07:51;13.70;99.90
17421;DHT22;8828;48.800;9.540;2022-10-26T03:10:19;13.70;99.90
17421;DHT22;8828;48.800;9.540;2022-10-26T03:12:47;13.70;99.90
17421;DHT22;8828;48.800;9.540;2022-10-26T03:15:16;13.70;99.90
17421;DHT22;8828;48.800;9.540;2022-10-26T03:17:43;13.70;99.90
17421;DHT22;8828;48.800;9.540;2022-10-26T03:20:13;13.70;99.90
17421;DHT22;8828;48.800;9.540;2022-10-26T03:22:41;13.70;99.90
17421;DHT22;8828;48.800;9.540;2022-10-26T03:25:09;13.70;99.90
17421;DHT22;8828;48.800;9.540;2022-10-26T03:27:37;13.70;99.90
17421;DHT22;8828;48.800;9.540;2022-10-26T03:30:06;13.70;99.90
17421;DHT22;8828;48.800;9.540;2022-10-26T03:32:34;13.70;99.90
17421;DHT22;8828;48.800;9.540;2022-10-26T03:35:02;13.70;99.90
17421;DHT22;8828;48.800;9.540;2022-10-26T03:37:31;13.70;99.90
17421;DHT22;8828;48.800;9.540;2022-10-26T03:39:59;13.70;99.90
17421;DHT22;8828;48.800;9.540;2022-10-26T03:42:27;13.70;99.90
17421;DHT22;8828;48.800;9.540;2022-10-26T03:44:54;13.70;99.90
17421;DHT22;8828;48.800;9.540;2022-10-26T03:47:22;13.70;99.90
17421;DHT22;8828;48.800;9.540;2022-10-26T03:49:50;13.70;99.90
17421;DHT22;8828;48.800;9.540;2022-10-26T03:52:18;13.70;99.90
17421;DHT22;8828;48.800;9.540;2022-10-26T03:54:47;13.60;99.90
17421;DHT22;8828;48.800;9.540;2022-10-26T03:57:16;13.70;99.90
17421;DHT22;8828;48.800;9.540;2022-10-26T03:59:43;13.70;99.90
17421;DHT22;8828;48.800;9.540;2022-10-26T04:02:11;13.70;99.90
17421;DHT22;8828;48.800;9.540;2022-10-26T04:04:40;13.70;99.90
17421;DHT22;8828;48.800;9.540;2022-10-26T04:07:08;13.70;99.90
17421;DHT22;8828;48.800;9.540;2022-10-26T04:09:37;13.70;99.90
17421;DHT22;8828;48.800;9.540;2022-10-26T04:12:06;13.70;99.90
17421;DHT22;8828;48.800;9.540;2022-10-26T04:14:34;13.70;99.90
17421;DHT22;8828;48.800;9.540;2022-10-26T04:17:02;13.70;99.90
17421;DHT22;8828;48.800;9.540;2022-10-26T04:19:30;13.80;99.90
17421;DHT22;8828;48.800;9.540;2022-10-26T04:21:58;13.80;99.90
17421;DHT22;8828;48.800;9.540;2022-10-26T04:24:25;13.80;99.90
17421;DHT22;8828;48.800;9.540;2022-10-26T04:26:53;13.80;99.90
17421;DHT22;8828;48.800;9.540;2022-10-26T04:29:23;13.80;99.90
17421;DHT22;8828;48.800;9.540;2022-10-26T04:31:52;13.90;99.90
17421;DHT22;8828;48.800;9.540;2022-10-26T04:34:19;13.80;99.90
17421;DHT22;8828;48.800;9.540;2022-10-26T04:36:47;13.90;99.90
17421;DHT22;8828;48.800;9.540;2022-10-26T04:39:15;13.90;99.90
17421;DHT22;8828;48.800;9.540;2022-10-26T04:41:43;13.80;99.90
17421;DHT22;8828;48.800;9.540;2022-10-26T04:44:11;13.80;99.90
17421;DHT22;8828;48.800;9.540;2022-10-26T04:46:40;13.80;99.90
17421;DHT22;8828;48.800;9.540;2022-10-26T04:49:08;13.80;99.90
17421;DHT22;8828;48.800;9.540;2022-10-26T04:51:36;13.80;99.90
17421;DHT22;8828;48.800;9.540;2022-10-26T04:54:04;13.80;99.90
17421;DHT22;8828;48.800;9.540;2022-10-26T04:56:32;13.80;99.90
17421;DHT22;8828;48.800;9.540;2022-10-26T04:59:00;13.80;99.90
17421;DHT22;8828;48.800;9.540;2022-10-26T05:01:29;13.80;99.90
17421;DHT22;8828;48.800;9.540;2022-10-26T05:03:59;13.80;99.90
17421;DHT22;8828;48.800;9.540;2022-10-26T05:06:27;13.80;99.90
17421;DHT22;8828;48.800;9.540;2022-10-26T05:08:55;13.80;99.90
17421;DHT22;8828;48.800;9.540;2022-10-26T05:11:23;13.80;99.90
17421;DHT22;8828;48.800;9.540;2022-10-26T05:13:51;13.80;99.90
17421;DHT22;8828;48.800;9.540;2022-10-26T05:16:19;13.80;99.90
17421;DHT22;8828;48.800;9.540;2022-10-26T05:18:47;13.80;99.90
17421;DHT22;8828;48.800;9.540;2022-10-26T05:21:17;13.80;99.90
17421;DHT22;8828;48.800;9.540;2022-10-26T05:23:48;13.80;99.90
17421;DHT22;8828;48.800;9.540;2022-10-26T05:26:18;13.80;99.90
17421;DHT22;8828;48.800;9.540;2022-10-26T05:28:46;13.80;99.90
17421;DHT22;8828;48.800;9.540;2022-10-26T05:31:14;13.80;99.90
17421;DHT22;8828;48.800;9.540;2022-10-26T05:33:42;13.80;99.90
17421;DHT22;8828;48.800;9.540;2022-10-26T05:36:10;13.80;99.90
17421;DHT22;8828;48.800;9.540;2022-10-26T05:38:39;13.80;99.90
17421;DHT22;8828;48.800;9.540;2022-10-26T05:41:07;13.80;99.90
17421;DHT22;8828;48.800;9.540;2022-10-26T05:43:35;13.80;99.90
17421;DHT22;8828;48.800;9.540;2022-10-26T05:46:03;13.90;99.90
17421;DHT22;8828;48.800;9.540;2022-10-26T05:48:31;13.80;99.90
17421;DHT22;8828;48.800;9.540;2022-10-26T05:50:59;13.80;99.90
17421;DHT22;8828;48.800;9.540;2022-10-26T05:53:27;13.80;99.90
17421;DHT22;8828;48.800;9.540;2022-10-26T05:55:57;13.80;99.90
17421;DHT22;8828;48.800;9.540;2022-10-26T05:58:26;13.80;99.90
17421;DHT22;8828;48.800;9.540;2022-10-26T06:01:06;13.90;99.90
17421;DHT22;8828;48.800;9.540;2022-10-26T06:03:48;13.80;99.90
17421;DHT22;8828;48.800;9.540;2022-10-26T06:06:21;13.80;99.90
17421;DHT22;8828;48.800;9.540;2022-10-26T06:08:49;13.80;99.90
17421;DHT22;8828;48.800;9.540;2022-10-26T06:11:19;13.80;99.90
17421;DHT22;8828;48.800;9.540;2022-10-26T06:13:48;13.80;99.90
17421;DHT22;8828;48.800;9.540;2022-10-26T06:16:28;13.90;99.90
17421;DHT22;8828;48.800;9.540;2022-10-26T06:19:05;13.90;99.90
17421;DHT22;8828;48.800;9.540;2022-10-26T06:21:46;13.90;99.90
17421;DHT22;8828;48.800;9.540;2022-10-26T06:24:21;13.90;99.90
17421;DHT22;8828;48.800;9.540;2022-10-26T06:26:58;13.90;99.90
17421;DHT22;8828;48.800;9.540;2022-10-26T06:29:36;13.90;99.90
17421;DHT22;8828;48.800;9.540;2022-10-26T06:32:08;13.90;99.90
17421;DHT22;8828;48.800;9.540;2022-10-26T06:34:41;13.90;99.90
17421;DHT22;8828;48.800;9.540;2022-10-26T06:37:11;13.90;99.90
17421;DHT22;8828;48.800;9.540;2022-10-26T06:39:43;13.90;99.90
17421;DHT22;8828;48.800;9.540;2022-10-26T06:42:18;13.90;99.90
17421;DHT22;8828;48.800;9.540;2022-10-26T06:44:47;13.90;99.90
17421;DHT22;8828;48.800;9.540;2022-10-26T06:47:19;13.90;99.90
17421;DHT22;8828;48.800;9.540;2022-10-26T06:49:56;13.90;99.90
17421;DHT22;8828;48.800;9.540;2022-10-26T06:52:31;13.90;99.90
17421;DHT22;8828;48.800;9.540;2022-10-26T06:55:00;13.90;99.90
17421;DHT22;8828;48.800;9.540;2022-10-26T06:57:33;13.90;99.90
17421;DHT22;8828;48.800;9.540;2022-10-26T07:00:05;13.90;99.90
17421;DHT22;8828;48.800;9.540;2022-10-26T07:02:33;13.90;99.90
17421;DHT22;8828;48.800;9.540;2022-10-26T07:05:02;13.90;99.90
17421;DHT22;8828;48.800;9.540;2022-10-26T07:07:32;14.00;99.90
17421;DHT22;8828;48.800;9.540;2022-10-26T07:10:02;14.00;99.90
17421;DHT22;8828;48.800;9.540;2022-10-26T07:12:34;14.00;99.90
17421;DHT22;8828;48.800;9.540;2022-10-26T07:15:02;14.00;99.90
17421;DHT22;8828;48.800;9.540;2022-10-26T07:17:30;14.00;99.90
17421;DHT22;8828;48.800;9.540;2022-10-26T07:19:58;14.00;99.90
17421;DHT22;8828;48.800;9.540;2022-10-26T07:22:26;14.00;99.90
17421;DHT22;8828;48.800;9.540;2022-10-26T07:24:54;14.00;99.90
17421;DHT22;8828;48.800;9.540;2022-10-26T07:27:28;14.10;99.90
17421;DHT22;8828;48.800;9.540;2022-10-26T07:29:57;14.10;99.90
17421;DHT22;8828;48.800;9.540;2022-10-26T07:32:25;14.10;99.90
17421;DHT22;8828;48.800;9.540;2022-10-26T07:34:53;14.10;99.90
17421;DHT22;8828;48.800;9.540;2022-10-26T07:37:21;14.10;99.90
17421;DHT22;8828;48.800;9.540;2022-10-26T07:39:49;14.10;99.90
17421;DHT22;8828;48.800;9.540;2022-10-26T07:42:17;14.10;99.90
17421;DHT22;8828;48.800;9.540;2022-10-26T07:44:44;14.10;99.90
17421;DHT22;8828;48.800;9.540;2022-10-26T07:47:14;14.10;99.90
17421;DHT22;8828;48.800;9.540;2022-10-26T07:49:42;14.10;99.90
17421;DHT22;8828;48.800;9.540;2022-10-26T07:52:09;14.10;99.90
17421;DHT22;8828;48.800;9.540;2022-10-26T07:54:38;14.10;99.90
17421;DHT22;8828;48.800;9.540;2022-10-26T07:57:06;14.20;99.90
17421;DHT22;8828;48.800;9.540;2022-10-26T07:59:34;14.20;99.90
17421;DHT22;8828;48.800;9.540;2022-10-26T08:02:02;14.10;99.90
17421;DHT22;8828;48.800;9.540;2022-10-26T08:04:31;14.20;99.90
17421;DHT22;8828;48.800;9.540;2022-10-26T08:06:59;14.20;99.90
17421;DHT22;8828;48.800;9.540;2022-10-26T08:09:27;14.20;99.90
17421;DHT22;8828;48.800;9.540;2022-10-26T08:11:55;14.20;99.90
17421;DHT22;8828;48.800;9.540;2022-10-26T08:14:23;14.30;99.90
17421;DHT22;8828;48.800;9.540;2022-10-26T08:16:50;14.30;99.90
17421;DHT22;8828;48.800;9.540;2022-10-26T08:19:19;14.30;99.90
17421;DHT22;8828;48.800;9.540;2022-10-26T08:21:48;14.30;99.90
17421;DHT22;8828;48.800;9.540;2022-10-26T08:24:16;14.30;99.90
17421;DHT22;8828;48.800;9.540;2022-10-26T08:26:44;14.30;99.90
17421;DHT22;8828;48.800;9.540;2022-10-26T08:29:12;14.30;99.90
17421;DHT22;8828;48.800;9.540;2022-10-26T08:31:40;14.40;99.90
17421;DHT22;8828;48.800;9.540;2022-10-26T08:34:08;14.40;99.90
17421;DHT22;8828;48.800;9.540;2022-10-26T08:36:36;14.50;99.90
17421;DHT22;8828;48.800;9.540;2022-10-26T08:39:05;14.70;99.90
17421;DHT22;8828;48.800;9.540;2022-10-26T08:41:36;14.90;99.90
17421;DHT22;8828;48.800;9.540;2022-10-26T08:44:14;15.00;99.90
17421;DHT22;8828;48.800;9.540;2022-10-26T08:46:48;15.00;99.90
17421;DHT22;8828;48.800;9.540;2022-10-26T08:49:20;15.00;99.90
17421;DHT22;8828;48.800;9.540;2022-10-26T08:51:52;15.00;99.90
17421;DHT22;8828;48.800;9.540;2022-10-26T08:54:31;15.00;99.90
17421;DHT22;8828;48.800;9.540;2022-10-26T08:57:03;15.00;99.90
17421;DHT22;8828;48.800;9.540;2022-10-26T08:59:39;15.00;99.90
17421;DHT22;8828;48.800;9.540;2022-10-26T09:02:11;15.10;99.90
17421;DHT22;8828;48.800;9.540;2022-10-26T09:04:39;15.10;99.90
17421;DHT22;8828;48.800;9.540;2022-10-26T09:07:13;15.20;99.90
17421;DHT22;8828;48.800;9.540;2022-10-26T09:09:56;15.20;99.90
17421;DHT22;8828;48.800;9.540;2022-10-26T09:12:32;15.30;99.90
17421;DHT22;8828;48.800;9.540;2022-10-26T09:15:19;15.30;99.90
17421;DHT22;8828;48.800;9.540;2022-10-26T09:17:57;15.40;99.90
17421;DHT22;8828;48.800;9.540;2022-10-26T09:20:52;15.40;99.90
17421;DHT22;8828;48.800;9.540;2022-10-26T09:23:32;15.40;99.90
17421;DHT22;8828;48.800;9.540;2022-10-26T09:26:11;15.50;99.90
17421;DHT22;8828;48.800;9.540;2022-10-26T09:28:40;15.60;99.90
17421;DHT22;8828;48.800;9.540;2022-10-26T09:31:14;15.70;99.90
17421;DHT22;8828;48.800;9.540;2022-10-26T09:33:43;15.80;99.90
17421;DHT22;8828;48.800;9.540;2022-10-26T09:36:17;15.90;99.90
17421;DHT22;8828;48.800;9.540;2022-10-26T09:38:50;15.90;99.90
17421;DHT22;8828;48.800;9.540;2022-10-26T09:41:25;16.10;99.90
17421;DHT22;8828;48.800;9.540;2022-10-26T09:44:02;16.30;99.90
17421;DHT22;8828;48.800;9.540;2022-10-26T09:46:36;17.20;99.90
17421;DHT22;8828;48.800;9.540;2022-10-26T09:49:09;17.60;99.90
17421;DHT22;8828;48.800;9.540;2022-10-26T09:51:39;17.90;99.90
17421;DHT22;8828;48.800;9.540;2022-10-26T09:54:13;18.30;99.90
17421;DHT22;8828;48.800;9.540;2022-10-26T09:56:43;18.90;99.90
17421;DHT22;8828;48.800;9.540;2022-10-26T09:59:13;19.50;99.90
17421;DHT22;8828;48.800;9.540;2022-10-26T10:01:42;20.40;99.90
17421;DHT22;8828;48.800;9.540;2022-10-26T10:04:17;21.80;99.90
17421;DHT22;8828;48.800;9.540;2022-10-26T10:06:48;23.70;99.90
17421;DHT22;8828;48.800;9.540;2022-10-26T10:09:17;25.20;99.90
17421;DHT22;8828;48.800;9.540;2022-10-26T10:11:49;26.50;99.90
17421;DHT22;8828;48.800;9.540;2022-10-26T10:14:23;27.60;99.90
17421;DHT22;8828;48.800;9.540;2022-10-26T10:16:55;28.30;99.90
17421;DHT22;8828;48.800;9.540;2022-10-26T10:19:26;28.80;99.90
17421;DHT22;8828;48.800;9.540;2022-10-26T10:21:56;29.20;99.90
17421;DHT22;8828;48.800;9.540;2022-10-26T10:24:27;29.60;99.90
17421;DHT22;8828;48.800;9.540;2022-10-26T10:26:59;30.00;99.10
17421;DHT22;8828;48.800;9.540;2022-10-26T10:29:28;30.40;97.30
17421;DHT22;8828;48.800;9.540;2022-10-26T10:31:58;30.30;95.80
17421;DHT22;8828;48.800;9.540;2022-10-26T10:34:28;29.70;95.70
17421;DHT22;8828;48.800;9.540;2022-10-26T10:36:56;28.80;96.30
17421;DHT22;8828;48.800;9.540;2022-10-26T10:39:35;28.10;97.30
17421;DHT22;8828;48.800;9.540;2022-10-26T10:42:13;27.60;97.60
17421;DHT22;8828;48.800;9.540;2022-10-26T10:44:44;27.60;97.60
17421;DHT22;8828;48.800;9.540;2022-10-26T10:47:21;27.70;97.10
17421;DHT22;8828;48.800;9.540;2022-10-26T10:49:55;28.40;96.70
17421;DHT22;8828;48.800;9.540;2022-10-26T10:52:26;28.70;95.30
17421;DHT22;8828;48.800;9.540;2022-10-26T10:55:08;28.10;96.30
17421;DHT22;8828;48.800;9.540;2022-10-26T10:57:49;27.40;96.40
17421;DHT22;8828;48.800;9.540;2022-10-26T11:00:20;26.60;97.00
17421;DHT22;8828;48.800;9.540;2022-10-26T11:03:02;26.90;98.00
17421;DHT22;8828;48.800;9.540;2022-10-26T11:05:41;28.00;96.60
17421;DHT22;8828;48.800;9.540;2022-10-26T11:08:19;29.30;94.40
17421;DHT22;8828;48.800;9.540;2022-10-26T11:10:50;30.40;92.90
17421;DHT22;8828;48.800;9.540;2022-10-26T11:13:23;30.90;91.20
17421;DHT22;8828;48.800;9.540;2022-10-26T11:15:55;30.50;91.50
17421;DHT22;8828;48.800;9.540;2022-10-26T11:18:29;30.00;90.70
17421;DHT22;8828;48.800;9.540;2022-10-26T11:21:01;29.00;91.40
17421;DHT22;8828;48.800;9.540;2022-10-26T11:23:36;28.10;92.40
17421;DHT22;8828;48.800;9.540;2022-10-26T11:26:10;27.20;93.70
17421;DHT22;8828;48.800;9.540;2022-10-26T11:28:46;26.80;94.70
17421;DHT22;8828;48.800;9.540;2022-10-26T11:31:21;26.70;95.50
17421;DHT22;8828;48.800;9.540;2022-10-26T11:34:05;26.40;95.40
17421;DHT22;8828;48.800;9.540;2022-10-26T11:36:38;26.00;96.00
17421;DHT22;8828;48.800;9.540;2022-10-26T11:39:13;25.80;96.90
17421;DHT22;8828;48.800;9.540;2022-10-26T11:41:50;25.70;97.10
17421;DHT22;8828;48.800;9.540;2022-10-26T11:44:28;25.50;97.50
17421;DHT22;8828;48.800;9.540;2022-10-26T11:47:01;25.20;97.70
17421;DHT22;8828;48.800;9.540;2022-10-26T11:49:35;25.00;98.40
17421;DHT22;8828;48.800;9.540;2022-10-26T11:52:10;24.70;99.60
17421;DHT22;8828;48.800;9.540;2022-10-26T11:54:46;24.20;99.50
17421;DHT22;8828;48.800;9.540;2022-10-26T11:57:15;23.80;99.90
17421;DHT22;8828;48.800;9.540;2022-10-26T11:59:48;23.40;99.90
17421;DHT22;8828;48.800;9.540;2022-10-26T12:02:18;23.00;99.90
17421;DHT22;8828;48.800;9.540;2022-10-26T12:04:51;22.70;99.90
17421;DHT22;8828;48.800;9.540;2022-10-26T12:07:24;22.60;99.90
17421;DHT22;8828;48.800;9.540;2022-10-26T12:09:53;22.70;99.90
17421;DHT22;8828;48.800;9.540;2022-10-26T12:12:27;23.00;99.90
17421;DHT22;8828;48.800;9.540;2022-10-26T12:15:13;23.30;99.90
17421;DHT22;8828;48.800;9.540;2022-10-26T12:17:48;23.50;99.90
17421;DHT22;8828;48.800;9.540;2022-10-26T12:20:41;23.40;99.90
17421;DHT22;8828;48.800;9.540;2022-10-26T12:23:16;23.20;99.90
17421;DHT22;8828;48.800;9.540;2022-10-26T12:29:43;23.20;99.90
17421;DHT22;8828;48.800;9.540;2022-10-26T12:35:37;23.30;99.90
17421;DHT22;8828;48.800;9.540;2022-10-26T12:41:23;23.20;99.90
17421;DHT22;8828;48.800;9.540;2022-10-26T12:44:01;23.10;99.90
17421;DHT22;8828;48.800;9.540;2022-10-26T12:46:39;22.90;99.90
17421;DHT22;8828;48.800;9.540;2022-10-26T12:52:25;22.40;99.90
17421;DHT22;8828;48.800;9.540;2022-10-26T12:55:18;22.30;99.90
17421;DHT22;8828;48.800;9.540;2022-10-26T12:57:58;22.20;99.90
17421;DHT22;8828;48.800;9.540;2022-10-26T13:00:29;22.20;99.90
17421;DHT22;8828;48.800;9.540;2022-10-26T13:03:08;22.20;99.90
17421;DHT22;8828;48.800;9.540;2022-10-26T13:05:57;22.20;99.90
17421;DHT22;8828;48.800;9.540;2022-10-26T13:08:37;22.10;99.90
17421;DHT22;8828;48.800;9.540;2022-10-26T13:11:12;22.00;99.90
17421;DHT22;8828;48.800;9.540;2022-10-26T13:13:42;21.90;99.90
17421;DHT22;8828;48.800;9.540;2022-10-26T13:16:11;21.80;99.90
17421;DHT22;8828;48.800;9.540;2022-10-26T13:18:44;21.70;99.90
17421;DHT22;8828;48.800;9.540;2022-10-26T13:21:15;21.60;99.90
17421;DHT22;8828;48.800;9.540;2022-10-26T13:23:46;21.50;99.90
17421;DHT22;8828;48.800;9.540;2022-10-26T13:26:16;21.40;99.90
17421;DHT22;8828;48.800;9.540;2022-10-26T13:28:49;21.40;99.90
17421;DHT22;8828;48.800;9.540;2022-10-26T13:31:52;21.40;99.90
17421;DHT22;8828;48.800;9.540;2022-10-26T13:34:23;21.40;99.90
17421;DHT22;8828;48.800;9.540;2022-10-26T13:37:05;21.40;99.90
17421;DHT22;8828;48.800;9.540;2022-10-26T13:39:37;21.40;99.90
17421;DHT22;8828;48.800;9.540;2022-10-26T13:42:12;21.40;99.90
17421;DHT22;8828;48.800;9.540;2022-10-26T13:44:44;21.40;99.90
17421;DHT22;8828;48.800;9.540;2022-10-26T13:47:21;21.40;99.90
17421;DHT22;8828;48.800;9.540;2022-10-26T13:49:51;21.30;99.90
17421;DHT22;8828;48.800;9.540;2022-10-26T13:52:26;21.30;99.90
17421;DHT22;8828;48.800;9.540;2022-10-26T13:54:58;21.30;99.90
17421;DHT22;8828;48.800;9.540;2022-10-26T13:57:32;21.30;99.90
17421;DHT22;8828;48.800;9.540;2022-10-26T14:00:08;21.40;99.90
17421;DHT22;8828;48.800;9.540;2022-10-26T14:02:40;21.50;99.90
17421;DHT22;8828;48.800;9.540;2022-10-26T14:05:10;21.60;99.90
17421;DHT22;8828;48.800;9.540;2022-10-26T14:07:43;21.70;99.90
17421;DHT22;8828;48.800;9.540;2022-10-26T14:10:24;21.70;99.90
17421;DHT22;8828;48.800;9.540;2022-10-26T14:12:53;21.70;99.90
17421;DHT22;8828;48.800;9.540;2022-10-26T14:15:23;21.60;99.90
17421;DHT22;8828;48.800;9.540;2022-10-26T14:17:53;21.60;99.90
17421;DHT22;8828;48.800;9.540;2022-10-26T14:20:23;21.50;99.90
17421;DHT22;8828;48.800;9.540;2022-10-26T14:22:52;21.40;99.90
17421;DHT22;8828;48.800;9.540;2022-10-26T14:25:23;21.30;99.90
17421;DHT22;8828;48.800;9.540;2022-10-26T14:28:22;21.30;99.90
17421;DHT22;8828;48.800;9.540;2022-10-26T14:30:51;21.20;99.90
17421;DHT22;8828;48.800;9.540;2022-10-26T14:33:23;21.10;99.90
17421;DHT22;8828;48.800;9.540;2022-10-26T14:35:53;21.10;99.90
17421;DHT22;8828;48.800;9.540;2022-10-26T14:38:24;21.00;99.90
17421;DHT22;8828;48.800;9.540;2022-10-26T14:40:56;21.00;99.90
17421;DHT22;8828;48.800;9.540;2022-10-26T14:43:25;20.90;99.90
17421;DHT22;8828;48.800;9.540;2022-10-26T14:45:53;20.80;99.90
17421;DHT22;8828;48.800;9.540;2022-10-26T14:48:24;20.70;99.90
17421;DHT22;8828;48.800;9.540;2022-10-26T14:50:59;20.60;99.90
17421;DHT22;8828;48.800;9.540;2022-10-26T14:53:32;20.50;99.90
17421;DHT22;8828;48.800;9.540;2022-10-26T14:56:03;20.40;99.90
17421;DHT22;8828;48.800;9.540;2022-10-26T14:58:32;20.30;99.90
17421;DHT22;8828;48.800;9.540;2022-10-26T15:01:27;20.20;99.90
17421;DHT22;8828;48.800;9.540;2022-10-26T15:04:02;20.10;99.90
17421;DHT22;8828;48.800;9.540;2022-10-26T15:06:40;20.00;99.90
17421;DHT22;8828;48.800;9.540;2022-10-26T15:09:36;19.90;99.90
17421;DHT22;8828;48.800;9.540;2022-10-26T15:12:18;19.80;99.90
17421;DHT22;8828;48.800;9.540;2022-10-26T15:14:47;19.70;99.90
17421;DHT22;8828;48.800;9.540;2022-10-26T15:17:20;19.50;99.90
17421;DHT22;8828;48.800;9.540;2022-10-26T15:19:50;19.50;99.90
17421;DHT22;8828;48.800;9.540;2022-10-26T15:22:22;19.40;99.90
17421;DHT22;8828;48.800;9.540;2022-10-26T15:25:00;19.30;99.90
17421;DHT22;8828;48.800;9.540;2022-10-26T15:27:30;19.20;99.90
17421;DHT22;8828;48.800;9.540;2022-10-26T15:30:15;19.10;99.90
17421;DHT22;8828;48.800;9.540;2022-10-26T15:32:45;19.10;99.90
17421;DHT22;8828;48.800;9.540;2022-10-26T15:35:31;19.00;99.90
17421;DHT22;8828;48.800;9.540;2022-10-26T15:37:59;19.00;99.90
17421;DHT22;8828;48.800;9.540;2022-10-26T15:40:27;18.90;99.90
17421;DHT22;8828;48.800;9.540;2022-10-26T15:42:59;18.80;99.90
17421;DHT22;8828;48.800;9.540;2022-10-26T15:45:29;18.80;99.90
17421;DHT22;8828;48.800;9.540;2022-10-26T15:48:02;18.70;99.90
17421;DHT22;8828;48.800;9.540;2022-10-26T15:50:42;18.70;99.90
17421;DHT22;8828;48.800;9.540;2022-10-26T15:53:16;18.60;99.90
17421;DHT22;8828;48.800;9.540;2022-10-26T15:55:44;18.50;99.90
17421;DHT22;8828;48.800;9.540;2022-10-26T15:58:13;18.40;99.90
17421;DHT22;8828;48.800;9.540;2022-10-26T16:00:42;18.40;99.90
17421;DHT22;8828;48.800;9.540;2022-10-26T16:03:13;18.30;99.90
17421;DHT22;8828;48.800;9.540;2022-10-26T16:05:41;18.30;99.90
17421;DHT22;8828;48.800;9.540;2022-10-26T16:08:11;18.20;99.90
17421;DHT22;8828;48.800;9.540;2022-10-26T16:10:44;18.10;99.90
17421;DHT22;8828;48.800;9.540;2022-10-26T16:13:14;18.10;99.90
17421;DHT22;8828;48.800;9.540;2022-10-26T16:15:42;18.00;99.90
17421;DHT22;8828;48.800;9.540;2022-10-26T16:18:10;17.90;99.90
17421;DHT22;8828;48.800;9.540;2022-10-26T16:20:39;17.80;99.90
17421;DHT22;8828;48.800;9.540;2022-10-26T16:23:07;17.80;99.90
17421;DHT22;8828;48.800;9.540;2022-10-26T16:25:40;17.80;99.90
17421;DHT22;8828;48.800;9.540;2022-10-26T16:28:10;17.70;99.90
17421;DHT22;8828;48.800;9.540;2022-10-26T16:30:39;17.60;99.90
17421;DHT22;8828;48.800;9.540;2022-10-26T16:33:07;17.60;99.90